Time;durP1;ratioP1;P1;durP2;ratioP2;P2;SDS_P1;SDS_P2;PMS_P1;PMS_P2;Temp;Humidity;BMP_temperature;BMP_pressure;BME280_temperature;BME280_humidity;BME280_pressure;Samples;Min_cycle;Max_cycle;Signal;HPM_P1;HPM_P2
2022/02/25 00:01:56;;;;;;;32.33;16.42;;;;;;;2.87;68.72;100217.69;5072896;28;20024;-49
2022/02/25 00:04:21;;;;;;;32.42;16.80;;;;;;;2.90;70.73;100208.72;5072361;28;20446;-49
2022/02/25 00:06:46;;;;;;;31.42;15.90;;;;;;;3.01;70.44;100207.69;5072796;28;20020;-51
2022/02/25 00:09:12;;;;;;;35.05;15.45;;;;;;;3.00;70.01;100206.06;5072114;28;20028;-50
2022/02/25 00:11:37;;;;;;;29.40;15.30;;;;;;;3.10;70.83;100205.06;5072257;28;20028;-51
2022/02/25 00:14:03;;;;;;;30.33;16.05;;;;;;;3.26;68.52;100208.88;5072563;28;20028;-50
2022/02/25 00:16:28;;;;;;;35.88;17.50;;;;;;;3.12;69.98;100195.22;5072295;28;20032;-37
2022/02/25 00:18:54;;;;;;;42.25;17.75;;;;;;;2.82;68.30;100195.44;5072747;28;20155;-36
2022/02/25 00:21:19;;;;;;;36.75;17.83;;;;;;;2.79;70.40;100199.19;5072724;28;20407;-36
2022/02/25 00:23:45;;;;;;;33.83;17.20;;;;;;;2.64;70.71;100197.97;5072566;28;20024;-36
2022/02/25 00:26:10;;;;;;;41.13;16.98;;;;;;;2.58;71.85;100199.34;5071419;28;20488;-37
2022/02/25 00:28:36;;;;;;;30.92;16.10;;;;;;;2.59;71.60;100197.56;5052573;28;20029;-37
2022/02/25 00:31:01;;;;;;;30.85;16.48;;;;;;;2.65;70.89;100194.38;5052338;28;20025;-37
2022/02/25 00:33:27;;;;;;;30.33;16.30;;;;;;;2.80;70.43;100189.47;5052338;28;20091;-37
2022/02/25 00:35:52;;;;;;;35.47;16.52;;;;;;;2.74;69.75;100191.72;5052155;28;20028;-37
2022/02/25 00:38:18;;;;;;;29.58;16.27;;;;;;;2.81;69.27;100193.78;5052350;28;20029;-37
2022/02/25 00:40:44;;;;;;;32.50;16.65;;;;;;;2.71;70.15;100197.25;5052196;28;20028;-37
2022/02/25 00:43:10;;;;;;;34.00;16.42;;;;;;;2.73;69.50;100176.91;5052309;28;20103;-37
2022/02/25 00:45:35;;;;;;;34.00;16.27;;;;;;;2.78;69.03;100189.66;5052515;28;20024;-37
2022/02/25 00:48:01;;;;;;;34.30;16.02;;;;;;;2.80;69.98;100194.75;5052115;28;20016;-37
2022/02/25 00:50:26;;;;;;;33.58;16.40;;;;;;;2.74;68.31;100178.59;5051183;28;20409;-37
2022/02/25 00:52:52;;;;;;;32.90;16.00;;;;;;;2.45;69.05;100190.94;5052336;28;20032;-37
2022/02/25 00:55:17;;;;;;;31.75;16.30;;;;;;;2.39;69.78;100186.25;5052065;28;20045;-37
2022/02/25 00:57:44;;;;;;;35.47;16.00;;;;;;;2.67;71.15;100185.38;5051625;28;20029;-37
2022/02/25 01:00:10;;;;;;;33.85;16.20;;;;;;;2.66;70.81;100186.34;5051241;28;20028;-37
2022/02/25 01:02:36;;;;;;;36.63;17.38;;;;;;;2.92;67.34;100168.16;5050682;28;20017;-37
2022/02/25 01:05:01;;;;;;;37.80;18.60;;;;;;;2.69;68.47;100172.09;5051000;28;20393;-37
2022/02/25 01:07:27;;;;;;;33.83;16.65;;;;;;;2.51;68.04;100164.09;5051406;28;20021;-37
2022/02/25 01:09:52;;;;;;;30.13;15.98;;;;;;;2.50;69.98;100165.91;5051514;28;20024;-37
2022/02/25 01:12:18;;;;;;;35.35;16.08;;;;;;;2.61;70.24;100167.56;5051093;28;20083;-37
2022/02/25 01:14:43;;;;;;;32.55;16.13;;;;;;;2.78;68.50;100159.88;5051173;28;20469;-37
2022/02/25 01:17:09;;;;;;;32.67;15.45;;;;;;;2.54;69.21;100169.91;5051272;28;20071;-37
2022/02/25 01:19:34;;;;;;;32.50;15.35;;;;;;;2.35;69.11;100152.38;5051247;28;20075;-36
2022/02/25 01:22:00;;;;;;;30.67;15.98;;;;;;;2.49;67.54;100172.13;5051095;28;20119;-36
2022/02/25 01:24:25;;;;;;;28.02;14.98;;;;;;;2.45;68.90;100162.03;5051484;28;20025;-37
2022/02/25 01:26:51;;;;;;;30.48;14.60;;;;;;;2.51;66.54;100171.97;5051286;28;20009;-36
2022/02/25 01:29:16;;;;;;;26.63;12.93;;;;;;;2.54;67.76;100156.75;5052098;28;20040;-36
2022/02/25 01:31:44;;;;;;;21.92;12.98;;;;;;;2.34;67.69;100157.75;5051765;28;20116;-37
2022/02/25 01:34:10;;;;;;;21.77;11.93;;;;;;;2.46;69.09;100155.84;5051690;28;20021;-37
2022/02/25 01:36:35;;;;;;;22.00;11.63;;;;;;;2.40;68.48;100159.84;5051756;28;20396;-37
2022/02/25 01:39:02;;;;;;;21.02;11.02;;;;;;;2.41;68.12;100150.16;5052017;28;20017;-37
2022/02/25 01:41:31;;;;;;;19.50;10.07;;;;;;;2.31;67.03;100153.63;5051636;28;20024;-37
2022/02/25 01:44:17;;;;;;;28.17;10.13;;;;;;;2.40;67.65;100145.84;5051653;28;20447;-37
2022/02/25 01:46:50;;;;;;;17.83;9.10;;;;;;;2.37;65.41;100144.34;5051740;28;20059;-37
2022/02/25 01:49:16;;;;;;;17.90;8.88;;;;;;;2.26;65.93;100126.94;5051435;28;20107;-37
2022/02/25 01:51:41;;;;;;;19.23;8.13;;;;;;;2.05;66.97;100134.97;5051337;28;20087;-37
2022/02/25 01:54:07;;;;;;;17.98;8.55;;;;;;;2.16;65.99;100141.88;5051265;28;20029;-37
2022/02/25 01:56:33;;;;;;;22.83;9.55;;;;;;;2.15;65.01;100133.19;5050785;28;20100;-37
2022/02/25 01:59:00;;;;;;;17.38;8.93;;;;;;;2.06;65.89;100125.31;5033486;28;20032;-37
2022/02/25 02:01:25;;;;;;;17.23;8.00;;;;;;;2.28;66.06;100116.31;5033378;28;20548;-37
2022/02/25 02:03:52;;;;;;;14.07;7.22;;;;;;;2.34;65.81;100102.59;5051105;28;20029;-37
2022/02/25 02:06:19;;;;;;;15.43;7.95;;;;;;;2.40;66.34;100109.09;5050966;28;20032;-37
2022/02/25 02:08:44;;;;;;;16.48;7.78;;;;;;;2.31;65.43;100097.66;5051125;28;20108;-37
2022/02/25 02:11:10;;;;;;;15.73;7.60;;;;;;;2.46;66.23;100103.28;5051423;28;20013;-36
2022/02/25 02:13:35;;;;;;;17.17;8.00;;;;;;;2.41;65.59;100102.88;5051196;28;20021;-37
2022/02/25 02:16:01;;;;;;;17.38;8.15;;;;;;;2.23;64.83;100106.22;5050998;28;20476;-37
2022/02/25 02:18:26;;;;;;;15.63;8.02;;;;;;;2.31;66.39;100110.78;5050784;28;20021;-37
2022/02/25 02:20:52;;;;;;;17.45;8.80;;;;;;;2.10;65.31;100105.69;5050835;28;20041;-37
2022/02/25 02:23:17;;;;;;;15.43;8.63;;;;;;;1.90;65.18;100108.31;5050605;28;20049;-37
2022/02/25 02:25:43;;;;;;;18.92;9.02;;;;;;;1.87;66.31;100098.09;5050886;28;20405;-37
2022/02/25 02:28:17;;;;;;;19.83;9.45;;;;;;;2.15;64.60;100096.44;5050478;28;20028;-37
2022/02/25 02:30:44;;;;;;;16.83;8.68;;;;;;;2.25;64.21;100099.03;5050715;28;20025;-37
2022/02/25 02:33:10;;;;;;;20.52;8.68;;;;;;;2.27;65.02;100091.03;5050486;28;20028;-37
2022/02/25 02:35:35;;;;;;;15.60;8.35;;;;;;;1.97;65.92;100089.41;5055906;28;20016;-37
2022/02/25 02:38:01;;;;;;;15.20;8.07;;;;;;;2.09;63.93;100091.72;5070715;28;20082;-36
2022/02/25 02:40:26;;;;;;;15.02;8.40;;;;;;;2.10;63.93;100088.13;5070265;28;20535;-36
2022/02/25 02:42:52;;;;;;;16.98;8.32;;;;;;;2.30;63.24;100083.69;5070672;28;20020;-37
2022/02/25 02:45:17;;;;;;;18.15;8.73;;;;;;;2.17;63.26;100090.19;5070558;28;20396;-37
2022/02/25 02:47:43;;;;;;;17.83;9.05;;;;;;;2.13;64.86;100089.63;5070276;28;20082;-37
2022/02/25 02:50:09;;;;;;;19.33;9.73;;;;;;;2.09;63.69;100083.00;5070224;28;20020;-37
2022/02/25 02:52:35;;;;;;;16.42;9.40;;;;;;;2.02;64.65;100081.91;5070339;28;20020;-37
2022/02/25 02:55:00;;;;;;;17.35;8.48;;;;;;;2.14;65.00;100079.00;5070620;28;20031;-37
2022/02/25 02:57:26;;;;;;;15.15;8.77;;;;;;;2.09;64.76;100089.09;5070667;28;20075;-37
2022/02/25 02:59:51;;;;;;;17.48;9.07;;;;;;;2.32;64.74;100079.13;5070807;28;20615;-37
2022/02/25 03:02:16;;;;;;;16.63;9.55;;;;;;;2.22;66.24;100083.56;5070518;28;20040;-38
2022/02/25 03:04:42;;;;;;;16.85;8.95;;;;;;;2.33;62.75;100090.44;5070754;28;20040;-37
2022/02/25 03:07:10;;;;;;;16.08;9.10;;;;;;;2.31;64.20;100092.38;5070631;28;20100;-37
2022/02/25 03:09:35;;;;;;;19.73;10.23;;;;;;;2.21;62.92;100096.81;5070837;28;20043;-37
2022/02/25 03:12:02;;;;;;;22.88;11.30;;;;;;;2.18;64.23;100090.06;5070461;28;20526;-37
2022/02/25 03:14:28;;;;;;;20.65;11.23;;;;;;;1.95;63.66;100087.72;5056074;28;20029;-37
2022/02/25 03:16:53;;;;;;;21.98;12.02;;;;;;;2.18;65.28;100097.94;5074310;28;20082;-37
2022/02/25 03:19:19;;;;;;;19.08;10.60;;;;;;;2.58;63.22;100089.00;5074115;28;20392;-37
2022/02/25 03:21:44;;;;;;;21.40;10.88;;;;;;;2.29;64.55;100081.19;5073878;28;20064;-37
2022/02/25 03:24:10;;;;;;;19.67;9.52;;;;;;;2.35;62.77;100081.44;5073995;28;20032;-37
2022/02/25 03:26:36;;;;;;;16.67;9.23;;;;;;;1.91;64.59;100052.22;5068694;28;20020;-37
2022/02/25 03:29:03;;;;;;;13.90;8.35;;;;;;;2.32;64.20;100078.28;5053533;28;20028;-36
2022/02/25 03:31:28;;;;;;;19.25;9.13;;;;;;;2.15;64.22;100079.81;5053638;28;20021;-37
2022/02/25 03:33:54;;;;;;;18.42;8.60;;;;;;;2.08;66.52;100081.38;5053284;28;20039;-36
2022/02/25 03:36:19;;;;;;;16.10;8.57;;;;;;;1.89;66.84;100085.66;5053082;28;20420;-36
2022/02/25 03:38:45;;;;;;;13.43;7.75;;;;;;;1.99;64.73;100082.22;5053384;28;20469;-36
2022/02/25 03:41:10;;;;;;;13.38;8.10;;;;;;;1.83;65.44;100086.22;5053424;28;20029;-37
2022/02/25 03:43:36;;;;;;;17.00;8.18;;;;;;;2.07;66.66;100079.72;5053669;28;20025;-37
2022/02/25 03:46:02;;;;;;;16.70;8.07;;;;;;;2.04;65.30;100080.00;5053296;28;20476;-37
2022/02/25 03:48:27;;;;;;;16.33;9.32;;;;;;;2.03;64.13;100083.59;5053060;28;20032;-36
2022/02/25 03:50:53;;;;;;;33.05;12.98;;;;;;;1.53;65.15;100089.81;5053214;28;20017;-37
2022/02/25 03:53:18;;;;;;;19.67;9.40;;;;;;;1.58;68.30;100090.22;5053248;28;20447;-36
2022/02/25 03:55:44;;;;;;;19.10;9.35;;;;;;;1.58;65.81;100081.50;5053444;28;20020;-36
2022/02/25 03:58:09;;;;;;;16.08;8.88;;;;;;;1.71;64.97;100088.16;5053184;28;20028;-39
2022/02/25 04:00:35;;;;;;;13.85;8.30;;;;;;;1.62;67.43;100085.50;5052694;28;20393;-37
2022/02/25 04:03:00;;;;;;;22.27;10.88;;;;;;;1.44;66.24;100085.38;5053098;28;20021;-37
2022/02/25 04:05:26;;;;;;;17.25;9.45;;;;;;;1.51;66.96;100084.69;5053132;28;20074;-38
2022/02/25 04:07:53;;;;;;;21.58;11.13;;;;;;;1.26;67.25;100083.41;5053169;28;20127;-40
2022/02/25 04:10:19;;;;;;;23.85;11.52;;;;;;;1.41;66.74;100077.75;5053021;28;20461;-37
2022/02/25 04:12:44;;;;;;;20.33;10.65;;;;;;;1.48;66.57;100089.38;5053317;28;20021;-38
2022/02/25 04:15:10;;;;;;;21.75;11.07;;;;;;;1.34;66.08;100090.59;5052949;28;20020;-38
2022/02/25 04:17:36;;;;;;;20.15;9.80;;;;;;;1.03;68.02;100092.44;5052917;28;20029;-37
2022/02/25 04:20:02;;;;;;;29.48;15.30;;;;;;;1.03;68.39;100093.28;5053004;28;20036;-37
2022/02/25 04:22:27;;;;;;;36.15;17.65;;;;;;;1.08;68.31;100088.47;5052728;28;20057;-36
2022/02/25 04:24:53;;;;;;;55.70;23.40;;;;;;;1.12;67.53;100094.25;5051660;28;20032;-36
2022/02/25 04:27:18;;;;;;;24.15;12.05;;;;;;;0.99;68.97;100097.16;5052561;28;20036;-36
2022/02/25 04:29:44;;;;;;;16.30;9.40;;;;;;;0.75;68.33;100094.84;5052683;28;20028;-37
2022/02/25 04:32:09;;;;;;;18.33;8.70;;;;;;;0.36;70.00;100089.38;5052809;28;20032;-37
2022/02/25 04:34:35;;;;;;;22.00;9.93;;;;;;;0.37;70.75;100081.41;5051684;28;20021;-36
2022/02/25 04:37:00;;;;;;;21.35;10.35;;;;;;;0.59;72.44;100087.44;5068873;28;20025;-36
2022/02/25 04:39:26;;;;;;;21.10;10.07;;;;;;;0.83;72.34;100083.69;5053950;28;20028;-36
2022/02/25 04:41:51;;;;;;;19.10;9.77;;;;;;;0.83;73.30;100089.75;5071918;28;20029;-37
2022/02/25 04:44:17;;;;;;;21.13;10.50;;;;;;;0.89;70.74;100083.16;5053749;28;20055;-36
2022/02/25 04:46:42;;;;;;;21.35;10.10;;;;;;;0.74;70.94;100085.31;5071590;28;20029;-36
2022/02/25 04:49:08;;;;;;;20.52;10.52;;;;;;;2.01;82.63;100096.03;5053878;28;20028;-36
2022/02/25 04:51:33;;;;;;;19.88;10.18;;;;;;;1.41;67.11;100089.09;5071617;28;20519;-37
2022/02/25 04:53:59;;;;;;;18.17;9.93;;;;;;;0.95;68.13;100086.09;5068551;28;20058;-37
2022/02/25 04:56:24;;;;;;;20.90;10.00;;;;;;;0.46;70.01;100087.66;5051433;28;20125;-36
2022/02/25 04:58:50;;;;;;;19.35;9.63;;;;;;;0.18;70.84;100086.53;5051334;28;20028;-36
2022/02/25 05:01:15;;;;;;;22.65;10.82;;;;;;;0.14;71.20;100093.00;5051512;28;20032;-36
2022/02/25 05:03:41;;;;;;;23.05;10.70;;;;;;;0.09;71.47;100095.97;5051022;28;20021;-36
2022/02/25 05:06:06;;;;;;;21.98;9.80;;;;;;;0.41;71.23;100100.31;5051073;28;20025;-37
2022/02/25 05:08:32;;;;;;;20.20;10.23;;;;;;;0.28;71.80;100092.66;5051333;28;20017;-36
2022/02/25 05:10:57;;;;;;;16.67;8.13;;;;;;;0.29;72.94;100091.72;5051342;28;20716;-37
2022/02/25 05:13:23;;;;;;;22.27;9.32;;;;;;;0.21;70.58;100095.91;5050933;28;20048;-37
2022/02/25 05:21:17;;;;;;;15.70;7.15;;;;;;;0.21;70.30;100098.53;5051226;28;20116;-37
2022/02/25 05:23:42;;;;;;;13.60;5.70;;;;;;;2.16;68.45;100097.25;5070899;28;20107;-37
2022/02/25 05:26:08;;;;;;;9.05;6.00;;;;;;;2.18;66.14;100110.25;5069576;28;20487;-36
2022/02/25 05:28:33;;;;;;;9.63;5.90;;;;;;;2.07;67.72;100119.09;5042378;28;20025;-36
2022/02/25 05:30:59;;;;;;;15.85;5.57;;;;;;;1.99;63.80;100109.28;5047348;28;20119;-38
2022/02/25 05:33:24;;;;;;;10.93;6.05;;;;;;;1.76;64.11;100103.47;5046823;28;20135;-37
2022/02/25 05:35:50;;;;;;;14.05;5.57;;;;;;;2.09;62.89;100104.84;5049899;28;20033;-36
2022/02/25 05:38:15;;;;;;;9.02;5.00;;;;;;;2.24;61.57;100109.69;5049824;28;20032;-36
2022/02/25 05:40:41;;;;;;;17.33;6.03;;;;;;;2.53;60.64;100107.81;5050246;28;20032;-38
2022/02/25 05:43:06;;;;;;;16.20;5.93;;;;;;;2.70;61.09;100106.25;5050515;28;20421;-37
2022/02/25 05:45:32;;;;;;;13.63;6.20;;;;;;;2.86;60.21;100104.81;5049678;28;20032;-37
2022/02/25 05:47:57;;;;;;;16.20;7.22;;;;;;;3.15;59.21;100099.41;5049709;28;20021;-37
2022/02/25 05:50:23;;;;;;;11.65;6.07;;;;;;;3.30;59.25;100097.13;5048391;28;20021;-38
2022/02/25 05:52:48;;;;;;;18.95;10.35;;;;;;;3.60;58.65;100085.44;5047330;28;20561;-38
2022/02/25 05:55:15;;;;;;;21.65;10.30;;;;;;;3.67;58.82;100083.00;5047205;28;20025;-38
2022/02/25 05:57:40;;;;;;;15.40;7.95;;;;;;;3.98;58.09;100079.97;5047415;28;20097;-38
2022/02/25 06:00:07;;;;;;;15.77;7.60;;;;;;;4.01;57.03;100088.41;5047487;28;20515;-38
2022/02/25 06:02:33;;;;;;;18.98;9.18;;;;;;;4.36;55.59;100078.78;5047646;28;20032;-38
2022/02/25 06:04:59;;;;;;;28.10;11.30;;;;;;;5.44;53.28;100091.44;5048603;28;20092;-37
2022/02/25 06:07:24;;;;;;;28.40;12.15;;;;;;;5.63;51.90;100099.06;5050175;28;20017;-37
2022/02/25 06:09:50;;;;;;;28.05;12.88;;;;;;;5.48;52.74;100090.97;5049635;28;20024;-38
2022/02/25 06:12:15;;;;;;;32.45;14.38;;;;;;;5.48;51.96;100090.13;5050104;28;20028;-37
2022/02/25 06:14:41;;;;;;;33.00;14.07;;;;;;;5.26;52.43;100089.75;5050330;28;20025;-37
2022/02/25 06:17:06;;;;;;;58.97;21.42;;;;;;;5.55;52.04;100091.13;5049585;28;20033;-37
2022/02/25 06:19:32;;;;;;;39.88;14.80;;;;;;;6.04;51.96;100093.03;5050219;28;20029;-37
2022/02/25 06:21:57;;;;;;;33.13;14.18;;;;;;;6.84;48.54;100089.59;5055934;28;20052;-37
2022/02/25 06:24:23;;;;;;;40.67;14.93;;;;;;;6.94;48.71;100086.75;5070216;28;20024;-37
2022/02/25 06:26:48;;;;;;;35.95;14.30;;;;;;;6.83;48.35;100082.66;5063502;28;20017;-37
2022/02/25 06:29:13;;;;;;;37.28;14.95;;;;;;;6.80;47.71;100088.28;5049755;28;20083;-37
2022/02/25 06:31:39;;;;;;;34.28;15.00;;;;;;;6.94;47.44;100086.75;5050081;28;20029;-37
2022/02/25 06:34:05;;;;;;;28.60;14.23;;;;;;;7.06;48.39;100090.66;5049916;28;20029;-37
2022/02/25 06:36:30;;;;;;;28.00;14.18;;;;;;;7.75;47.52;100095.22;5062789;28;20024;-37
2022/02/25 06:38:56;;;;;;;33.13;13.55;;;;;;;8.34;45.04;100094.59;5069744;28;20020;-39
2022/02/25 06:41:23;;;;;;;26.45;12.23;;;;;;;8.20;44.82;100104.97;5069802;28;20012;-38
2022/02/25 06:43:49;;;;;;;26.55;11.68;;;;;;;8.40;43.84;100075.31;5069778;28;20107;-38
2022/02/25 06:46:14;;;;;;;21.15;10.45;;;;;;;8.56;43.94;100101.69;5069851;28;20021;-38
2022/02/25 06:48:40;;;;;;;20.77;10.07;;;;;;;8.26;44.29;100100.78;5071544;28;20024;-38
2022/02/25 06:51:06;;;;;;;20.75;9.45;;;;;;;8.57;43.93;100107.84;5073420;28;20024;-37
2022/02/25 06:53:32;;;;;;;20.30;10.38;;;;;;;8.85;43.21;100102.72;5073606;28;20385;-37
2022/02/25 06:55:57;;;;;;;20.20;9.85;;;;;;;8.94;42.73;100116.72;5073569;28;20033;-37
2022/02/25 06:58:23;;;;;;;20.48;9.30;;;;;;;8.82;43.09;100111.06;5073003;28;20027;-38
2022/02/25 07:00:48;;;;;;;18.77;9.80;;;;;;;9.18;42.61;100123.59;5073176;28;20027;-37
2022/02/25 07:03:14;;;;;;;19.63;9.68;;;;;;;9.29;42.25;100122.28;5073393;28;20472;-36
2022/02/25 07:05:39;;;;;;;20.23;9.10;;;;;;;9.46;41.88;100122.88;5073086;28;20029;-38
2022/02/25 07:08:08;;;;;;;16.67;8.68;;;;;;;9.43;42.21;100125.94;5072603;28;20059;-38
2022/02/25 07:10:35;;;;;;;17.33;8.55;;;;;;;9.59;41.37;100128.34;5073007;28;20016;-38
2022/02/25 07:13:01;;;;;;;15.30;8.40;;;;;;;9.61;41.73;100130.81;5073134;28;20603;-38
2022/02/25 07:15:26;;;;;;;14.55;7.45;;;;;;;9.46;42.06;100123.72;5072758;28;20107;-38
2022/02/25 07:17:51;;;;;;;17.52;8.13;;;;;;;9.27;42.08;100130.44;5073061;28;20079;-38
2022/02/25 07:20:17;;;;;;;16.80;7.93;;;;;;;9.17;42.75;100124.59;5072903;28;20109;-38
2022/02/25 07:22:42;;;;;;;15.65;8.13;;;;;;;9.66;41.55;100131.91;5072712;28;20044;-38
2022/02/25 07:25:08;;;;;;;19.98;9.15;;;;;;;9.78;42.09;100127.72;5054722;28;20024;-37
2022/02/25 07:27:34;;;;;;;15.90;8.27;;;;;;;9.48;42.06;100126.19;5060290;28;20025;-37
2022/02/25 07:29:59;;;;;;;16.50;9.45;;;;;;;9.67;41.81;100133.56;5052704;28;20024;-37
2022/02/25 07:32:26;;;;;;;19.02;10.05;;;;;;;9.88;41.51;100123.94;5052608;28;20025;-37
2022/02/25 07:34:52;;;;;;;18.48;9.38;;;;;;;10.09;41.22;100134.59;5052682;28;20031;-37
2022/02/25 07:37:17;;;;;;;15.55;8.90;;;;;;;10.36;40.83;100129.53;5072029;28;20028;-37
2022/02/25 07:39:43;;;;;;;19.17;9.15;;;;;;;10.09;42.04;100123.97;5072416;28;20032;-38
2022/02/25 07:42:08;;;;;;;19.95;9.65;;;;;;;10.19;40.94;100128.94;5072324;28;20024;-38
2022/02/25 07:44:34;;;;;;;13.55;6.68;;;;;;;10.29;41.62;100120.63;5054564;28;20024;-37
2022/02/25 07:46:59;;;;;;;19.90;10.18;;;;;;;10.21;41.19;100116.28;5072574;28;20032;-37
2022/02/25 07:49:25;;;;;;;16.70;8.13;;;;;;;10.63;40.88;100119.09;5072860;28;20024;-38
2022/02/25 07:51:52;;;;;;;10.90;6.72;;;;;;;10.87;39.92;100113.31;5071519;28;20458;-37
2022/02/25 07:54:18;;;;;;;11.70;6.72;;;;;;;10.96;40.48;100112.09;5072335;28;20108;-37
2022/02/25 07:56:43;;;;;;;10.52;6.22;;;;;;;11.58;38.76;100106.00;5072263;28;20368;-37
2022/02/25 07:59:09;;;;;;;15.52;9.38;;;;;;;11.74;38.30;100111.75;5072189;28;20090;-38
2022/02/25 08:01:34;;;;;;;9.90;6.25;;;;;;;12.08;37.41;100102.00;5072617;28;20100;-38
2022/02/25 08:04:00;;;;;;;8.57;4.78;;;;;;;12.03;36.20;100098.31;5071873;28;20400;-37
2022/02/25 08:06:26;;;;;;;8.20;5.03;;;;;;;12.08;35.78;100104.66;5058110;28;20029;-37
2022/02/25 08:08:51;;;;;;;6.28;4.30;;;;;;;12.03;35.87;100109.81;5051565;28;20048;-38
2022/02/25 08:11:17;;;;;;;7.53;4.22;;;;;;;12.19;35.44;100097.91;5051961;28;20531;-38
2022/02/25 08:13:42;;;;;;;9.05;4.93;;;;;;;12.18;36.01;100104.25;5051644;28;20036;-38
2022/02/25 08:16:09;;;;;;;10.10;5.05;;;;;;;12.23;36.40;100099.13;5051773;28;20033;-37
2022/02/25 08:18:34;;;;;;;10.10;4.97;;;;;;;12.34;36.29;100095.03;5017607;28;20059;-38
2022/02/25 08:21:00;;;;;;;8.32;5.10;;;;;;;12.30;36.43;100093.81;5051650;28;20029;-38
2022/02/25 08:23:25;;;;;;;9.18;4.78;;;;;;;12.54;36.06;100089.66;5051762;28;20049;-37
2022/02/25 08:25:51;;;;;;;8.57;4.78;;;;;;;12.64;35.56;100090.06;5051969;28;20461;-37
2022/02/25 08:28:16;;;;;;;6.10;4.07;;;;;;;12.67;35.75;100092.31;5051094;28;20021;-38
2022/02/25 08:30:43;;;;;;;6.82;4.22;;;;;;;12.57;34.73;100080.44;5053985;28;20033;-38
2022/02/25 08:33:08;;;;;;;8.57;4.03;;;;;;;12.49;35.79;100076.13;5051312;28;20472;-38
2022/02/25 08:35:34;;;;;;;6.32;4.18;;;;;;;12.86;34.19;100081.78;5056565;28;20054;-37
2022/02/25 08:38:01;;;;;;;7.82;4.72;;;;;;;12.54;34.68;100078.97;5071395;28;20397;-38
2022/02/25 08:40:27;;;;;;;6.63;4.18;;;;;;;12.62;34.25;100073.44;5071717;28;20530;-39
2022/02/25 08:42:53;;;;;;;6.47;4.40;;;;;;;12.94;34.38;100078.06;5071579;28;20107;-38
2022/02/25 08:45:18;;;;;;;7.78;3.72;;;;;;;13.26;32.84;100066.41;5071183;28;20111;-39
2022/02/25 08:47:44;;;;;;;8.68;4.10;;;;;;;13.02;34.08;100070.66;5071547;28;20134;-37
2022/02/25 08:50:11;;;;;;;5.50;3.60;;;;;;;13.08;32.78;100069.81;5053929;28;20086;-38
2022/02/25 08:52:36;;;;;;;5.85;3.45;;;;;;;13.30;32.68;100072.19;5053926;28;20028;-38
2022/02/25 08:55:02;;;;;;;9.20;3.55;;;;;;;13.44;32.08;100073.78;5071603;28;20521;-37
2022/02/25 08:57:27;;;;;;;6.95;3.15;;;;;;;13.39;31.73;100064.75;5071014;28;20506;-38
2022/02/25 08:59:53;;;;;;;7.38;3.20;;;;;;;13.47;31.59;100043.13;5071025;28;20033;-38
2022/02/25 09:02:18;;;;;;;7.53;3.30;;;;;;;13.28;32.38;100058.19;5070997;28;20024;-39
2022/02/25 09:04:44;;;;;;;21.33;4.43;;;;;;;13.19;32.22;100054.13;5071097;28;20024;-38
2022/02/25 09:07:10;;;;;;;12.77;4.22;;;;;;;13.43;32.21;100049.94;5070848;28;20419;-37
2022/02/25 09:09:35;;;;;;;8.77;3.30;;;;;;;13.37;31.78;100045.44;5071129;28;20032;-38
2022/02/25 09:12:01;;;;;;;5.75;3.22;;;;;;;13.47;31.58;100043.13;5070827;28;20055;-38
2022/02/25 09:14:28;;;;;;;10.40;3.10;;;;;;;13.34;31.85;100035.97;5071186;28;20090;-38
2022/02/25 09:16:54;;;;;;;14.73;4.70;;;;;;;13.34;31.92;100037.84;5070754;28;20415;-38
2022/02/25 09:19:19;;;;;;;8.57;3.33;;;;;;;13.40;31.92;100027.13;5053072;28;20033;-38
2022/02/25 09:21:45;;;;;;;8.63;3.30;;;;;;;13.20;32.16;100029.88;5070972;28;20086;-38
2022/02/25 09:24:11;;;;;;;6.28;3.30;;;;;;;13.41;31.77;100027.94;5071094;28;20068;-38
2022/02/25 09:26:36;;;;;;;6.82;3.15;;;;;;;13.42;31.59;100026.88;5070729;28;20020;-38
2022/02/25 09:29:02;;;;;;;6.45;3.50;;;;;;;13.84;31.47;100013.84;5071014;28;20020;-38
2022/02/25 09:31:27;;;;;;;6.13;3.58;;;;;;;13.81;31.42;100017.78;5071045;28;20061;-39
2022/02/25 09:33:53;;;;;;;7.15;3.70;;;;;;;13.79;31.50;100024.41;5070103;28;20127;-38
2022/02/25 09:36:18;;;;;;;6.57;4.70;;;;;;;13.79;31.05;100011.03;5070628;28;20024;-37
2022/02/25 09:38:44;;;;;;;9.75;5.65;;;;;;;13.71;31.43;100009.44;5070817;28;20036;-38
2022/02/25 09:41:09;;;;;;;4.72;3.00;;;;;;;13.49;31.00;100016.97;5057484;28;20112;-38
2022/02/25 09:43:35;;;;;;;4.18;2.70;;;;;;;13.28;30.31;100015.44;5050625;28;20189;-38
2022/02/25 09:46:01;;;;;;;8.13;3.10;;;;;;;13.69;30.37;100014.19;5050605;28;20028;-38
2022/02/25 09:48:27;;;;;;;4.65;2.50;;;;;;;13.80;29.85;100002.78;5032517;28;20025;-38
2022/02/25 09:50:52;;;;;;;5.05;2.53;;;;;;;13.58;29.40;100006.84;5050628;28;20036;-38
2022/02/25 09:53:19;;;;;;;3.78;2.95;;;;;;;13.39;30.45;99971.22;5050713;28;20558;-38
2022/02/25 09:55:44;;;;;;;6.38;2.90;;;;;;;13.88;29.96;99996.34;5050653;28;20029;-38
2022/02/25 09:58:10;;;;;;;4.75;2.47;;;;;;;13.21;30.75;99994.09;5050451;28;20036;-38
2022/02/25 10:00:36;;;;;;;5.78;2.90;;;;;;;13.41;30.83;99994.00;5050506;28;20037;-38
2022/02/25 10:03:06;;;;;;;6.38;2.90;;;;;;;13.62;30.44;99998.16;5050729;28;20086;-38
2022/02/25 10:05:33;;;;;;;4.57;2.85;;;;;;;13.58;30.23;99998.84;5050757;28;20036;-38
2022/02/25 10:08:19;;;;;;;3.63;2.30;;;;;;;13.62;29.12;99990.16;5050792;28;20033;-38
2022/02/25 10:10:54;;;;;;;4.50;2.42;;;;;;;13.92;28.97;99983.31;5050365;28;20029;-39
2022/02/25 10:13:30;;;;;;;7.43;2.58;;;;;;;13.48;29.86;99980.59;5050282;28;20052;-48
2022/02/25 10:15:59;;;;;;;7.95;3.28;;;;;;;13.77;29.95;99981.00;5050349;28;20025;-46
2022/02/25 10:18:31;;;;;;;2.72;2.03;;;;;;;13.94;28.98;99981.28;5050297;28;20258;-50
2022/02/25 10:21:07;;;;;;;7.20;2.72;;;;;;;14.02;28.81;99972.94;5050370;28;20079;-50
2022/02/25 10:23:34;;;;;;;4.25;2.70;;;;;;;13.87;29.57;99963.41;5052312;28;20053;-48
2022/02/25 10:26:08;;;;;;;3.83;2.25;;;;;;;13.72;28.87;99952.22;5054647;28;20051;-48
2022/02/25 10:28:35;;;;;;;3.53;1.83;;;;;;;13.54;28.38;99955.66;5034475;28;20018;-47
2022/02/25 10:31:24;;;;;;;7.00;1.70;;;;;;;13.60;26.65;99944.09;5034714;28;20029;-48
2022/02/25 10:34:05;;;;;;;3.72;2.25;;;;;;;13.72;27.58;99936.16;5034422;28;20095;-50
2022/02/25 10:36:50;;;;;;;3.17;2.00;;;;;;;13.69;27.31;99931.28;5059367;28;20033;-48
2022/02/25 10:39:19;;;;;;;2.97;1.80;;;;;;;13.76;26.62;99928.53;5073204;28;20111;-48
2022/02/25 10:42:11;;;;;;;4.03;1.90;;;;;;;13.79;26.21;99920.88;5074128;28;20472;-49
2022/02/25 10:44:53;;;;;;;3.05;2.03;;;;;;;13.54;26.72;99912.06;5074106;28;20084;-49
2022/02/25 10:47:25;;;;;;;3.05;2.05;;;;;;;13.28;27.20;99913.88;5073950;28;20090;-49
2022/02/25 10:49:59;;;;;;;5.68;2.50;;;;;;;13.55;27.32;99905.69;5072206;28;20028;-49
2022/02/25 10:52:28;;;;;;;3.60;2.15;;;;;;;13.74;26.11;99903.88;5072082;28;20079;-49
2022/02/25 10:54:54;;;;;;;4.75;2.47;;;;;;;14.11;26.32;99898.53;5072008;28;20033;-48
2022/02/25 10:57:19;;;;;;;2.40;1.90;;;;;;;14.28;25.09;99892.38;5071802;28;20126;-49
2022/02/25 10:59:46;;;;;;;5.70;3.83;;;;;;;14.08;25.24;99881.09;5071781;28;20025;-50
2022/02/25 11:02:28;;;;;;;4.95;2.70;;;;;;;13.93;25.64;99883.31;5071927;28;20032;-50
2022/02/25 11:05:16;;;;;;;3.25;2.05;;;;;;;14.21;25.20;99885.47;5072867;28;20048;-48
2022/02/25 11:07:43;;;;;;;4.95;2.00;;;;;;;14.17;24.80;99874.41;5073501;28;20112;-48
2022/02/25 11:10:10;;;;;;;3.75;2.28;;;;;;;13.98;24.86;99870.91;5073060;28;20033;-49
2022/02/25 11:12:38;;;;;;;3.15;2.00;;;;;;;13.82;25.32;99863.44;5073530;28;20035;-50
2022/02/25 11:15:04;;;;;;;3.83;2.72;;;;;;;13.88;26.44;99865.25;5073440;28;20029;-47
2022/02/25 11:17:30;;;;;;;4.75;2.47;;;;;;;14.01;24.41;99858.94;5073184;28;20044;-50
2022/02/25 11:19:57;;;;;;;4.22;2.38;;;;;;;14.10;25.68;99859.47;5039025;28;20032;-49
2022/02/25 11:22:23;;;;;;;2.90;1.85;;;;;;;14.14;24.02;99855.28;5072830;28;20140;-46
2022/02/25 11:24:48;;;;;;;5.28;1.90;;;;;;;14.17;25.20;99844.16;5073132;28;20056;-51
2022/02/25 11:27:14;;;;;;;5.32;1.92;;;;;;;14.09;25.06;99839.91;5044703;28;20033;-48